• Join FlightAware (Why Join?)
  • Login
  • US Flag 
01:45AM EDT


 

Airport Tracker/Info


-or-


 

Live Flight TrackerFlight Track Log ✈ SWA2852 ✈ 29-Apr-2013 ✈ KBNA - KMCI

Flight Track Log - Related Links

Times and Time Zones

All times are in EDT time to prevent confusion due to time zone crossing. See the SWA2852 flight status page for this flight to view local times or setup timezone preferences in your user account.

Time Position Orientation Groundspeed Altitude Reporting Facility
EDT Latitude Longitude Course Direction KTS MPH feet Rate Location/Type
07:30AM 36.1333 -86.6833 292° West 162 186 1,200  Level Nashville TRACON
07:31AM 36.1500 -86.7333 292° West 181 208 2,400 1,920 Climbing Nashville TRACON
07:32AM 36.1667 -86.8000 287° West 245 282 4,500 2,940 Climbing Nashville TRACON
07:33AM 36.1833 -86.9167 280° West 280 322 8,900 3,420 Climbing Nashville TRACON
07:34AM 36.2067 -86.9875 292° West 273 314 11,500 2,460 Climbing Memphis Center
07:35AM 36.2322 -87.0842 288° West 315 362 13,500 2,700 Climbing Memphis Center
07:36AM 36.2622 -87.1989 288° West 343 395 16,900 3,060 Climbing Memphis Center
07:37AM 36.2861 -87.3214 284° West 366 421 19,700 2,760 Climbing Memphis Center
07:38AM 36.3081 -87.4544 282° West 388 447 22,500 2,460 Climbing Memphis Center
07:39AM 36.3506 -87.5819 293° West 393 452 24,700 2,100 Climbing Memphis Center
07:40AM 36.4119 -87.7164 300° West 404 465 26,800 1,980 Climbing Memphis Center
07:41AM 36.4708 -87.8461 299° West 417 480 28,700 1,800 Climbing Memphis Center
07:42AM 36.5297 -87.9811 299° West 430 495 30,500 1,980 Climbing Memphis Center
07:43AM 36.5864 -88.1111 299° West 430 495 32,700 1,800 Climbing Memphis Center
07:44AM 36.6406 -88.2286 300° West 430 495 34,200 1,560 Climbing Memphis Center
07:45AM 36.6700 -88.3703 285° West 430 495 35,900 1,500 Climbing Memphis Center
07:46AM 36.6931 -88.5172 281° West 430 495 37,300 1,020 Climbing Memphis Center
07:47AM 36.7161 -88.6617 281° West 430 495 38,000 300 Climbing Memphis Center
07:48AM 36.7389 -88.8139 281° West 435 501 38,000  Level Memphis Center
07:49AM 36.7614 -88.9558 281° West 435 501 38,000  Level Memphis Center
07:50AM 36.7858 -89.0978 282° West 429 494 38,000  Level Memphis Center
07:51AM 36.8061 -89.2453 280° West 429 494 38,000  Level Memphis Center
07:52AM 36.8281 -89.3875 281° West 429 494 38,000  Level Memphis Center
07:53AM 36.8478 -89.5297 280° West 429 494 38,000  Level Memphis Center
07:54AM 36.8739 -89.6903 282° West 429 494 38,000  Level Memphis Center
07:55AM 36.8933 -89.8328 280° West 429 494 38,000  Level Memphis Center
07:56AM 36.9125 -89.9756 280° West 429 494 38,000  Level Memphis Center
07:57AM 36.9336 -90.1181 281° West 429 494 38,000  Level Memphis Center
07:58AM 36.9547 -90.2608 281° West 429 494 38,000  Level Memphis Center
07:59AM 36.9736 -90.4061 279° West 429 494 38,000  Level Memphis Center
08:00AM 36.9942 -90.5517 280° West 429 494 38,000  Level Memphis Center
08:01AM 37.0242 -90.7503 281° West 424 488 38,000  Level Kansas City Center
08:02AM 37.0425 -90.8958 279° West 423 487 38,000  Level Kansas City Center
08:03AM 37.0622 -91.0419 280° West 427 491 38,000  Level Kansas City Center
08:04AM 37.0844 -91.2017 280° West 424 488 38,000  Level Kansas City Center
08:05AM 37.1058 -91.3467 281° West 423 487 38,000  Level Kansas City Center
08:06AM 37.1244 -91.4928 279° West 423 487 38,000  Level Kansas City Center
08:07AM 37.1442 -91.6378 280° West 422 486 38,000  Level Kansas City Center
08:08AM 37.1628 -91.7839 279° West 423 487 38,000  Level Kansas City Center
08:09AM 37.1822 -91.9292 280° West 421 484 38,000  Level Kansas City Center
08:10AM 37.2006 -92.0736 279° West 420 483 38,000  Level Kansas City Center
08:11AM 37.2194 -92.2208 279° West 422 486 38,000  Level Kansas City Center
08:12AM 37.2383 -92.3647 279° West 416 479 38,000  Level Kansas City Center
08:13AM 37.2572 -92.5111 279° West 418 481 38,000  Level Kansas City Center
08:14AM 37.2825 -92.6533 283° West 420 483 38,000  Level Kansas City Center
08:15AM 37.3783 -92.7836 313° West 420 483 38,000  Level Kansas City Center
08:16AM 37.4594 -92.8900 314° West 417 480 38,000 -360 Level Kansas City Center
08:18AM 37.5400 -92.9964 314° West 417 480 37,300 -840 Descending Kansas City Center
08:19AM 37.6231 -93.1036 314° West 422 486 36,400 -660 Descending Kansas City Center
08:20AM 37.7028 -93.2100 313° West 417 480 36,000 -240 Descending Kansas City Center
08:21AM 37.7844 -93.3178 314° West 420 483 36,000  Level Kansas City Center
08:22AM 37.8644 -93.4247 313° West 418 481 36,000 -600 Level Kansas City Center
08:23AM 37.9464 -93.5311 314° West 418 481 34,900 -1,620 Descending Kansas City Center
08:24AM 38.0278 -93.6375 314° West 418 481 32,700 -2,100 Descending Kansas City Center
08:25AM 38.1047 -93.7408 313° West 405 466 30,700 -1,980 Descending Kansas City Center
08:26AM 38.1994 -93.8078 331° Northwest 388 447 28,700 -1,980 Descending Kansas City Center
08:27AM 38.2967 -93.8617 336° Northwest 382 440 26,700 -1,920 Descending Kansas City Center
08:28AM 38.3906 -93.9147 336° Northwest 373 429 24,800 -1,860 Descending Kansas City Center
08:29AM 38.4831 -93.9678 336° Northwest 361 415 23,000 -1,860 Descending Kansas City Center
08:30AM 38.5825 -94.0256 336° Northwest 352 405 21,000 -1,860 Descending Kansas City Center
08:31AM 38.6656 -94.0739 336° Northwest 343 395 19,300 -1,860 Descending Kansas City Center
08:32AM 38.7469 -94.1497 324° Northwest 326 375 17,300 -1,800 Descending Kansas City Center
08:33AM 38.8103 -94.2203 319° Northwest 317 365 15,700 -1,620 Descending Kansas City Center
08:34AM 38.8728 -94.2869 320° Northwest 308 354 14,100 -1,740 Descending Kansas City Center
08:35AM 38.9461 -94.3678 319° Northwest 311 358 12,200 -1,080 Descending Kansas City Center
08:36AM 39.0061 -94.4328 320° Northwest 296 341 12,000 -120 Descending Kansas City Center
08:37AM 39.0767 -94.5092 320° Northwest 295 339 12,000 -480 Level Kansas City Center
08:38AM 39.1347 -94.5722 320° Northwest 288 331 11,100 -840 Descending Kansas City Center
08:39AM 39.1875 -94.6275 321° Northwest 263 303 10,300 -900 Descending Kansas City Center
08:40AM 39.2656 -94.6064 12° North 256 295 9,300 -1,080 Descending Kansas City Center
08:41AM 39.3267 -94.5839 16° North 242 278 8,100 -1,440 Descending Kansas City Center
08:42AM 39.3953 -94.5583 16° North 231 266 6,400 -1,380 Descending Kansas City Center
08:43AM 39.4186 -94.6025 304° West 159 183 5,300 -1,320 Descending Kansas City Center
08:44AM 39.4086 -94.6581 257° West 141 162 3,800 -1,380 Descending Kansas City Center
08:45AM 39.3858 -94.6883 226° Southwest 139 160 2,500 -1,020 Descending Kansas City Center
08:46AM 39.3581 -94.7100 211° Southwest 121 139 1,800 -780 Descending Kansas City Center
08:47AM 39.3219 -94.7211 193° South 119 137 1,000 -840 Descending Kansas City Center